Time;durP1;ratioP1;P1;durP2;ratioP2;P2;SDS_P1;SDS_P2;PMS_P1;PMS_P2;Temp;Humidity;BMP_temperature;BMP_pressure;BME280_temperature;BME280_humidity;BME280_pressure;Samples;Min_cycle;Max_cycle;Signal;HPM_P1;HPM_P2
2023/08/27 00:00:13;;;;;;;3.63;2.90;;;;;;;16.87;77.99;100589.38;4998286;28;20219;-72
2023/08/27 00:02:43;;;;;;;2.90;2.70;;;;;;;16.87;78.43;100589.38;4998427;28;20350;-72
2023/08/27 00:05:10;;;;;;;3.37;3.07;;;;;;;16.89;78.37;100591.66;4997811;28;20207;-72
2023/08/27 00:07:37;;;;;;;4.60;3.10;;;;;;;16.88;77.65;100593.56;4999148;28;20710;-73
2023/08/27 00:10:04;;;;;;;3.37;2.90;;;;;;;16.90;77.56;100587.88;4998200;28;20227;-72
2023/08/27 00:12:30;;;;;;;3.03;2.77;;;;;;;16.97;78.98;100601.28;4998743;28;20226;-72
2023/08/27 00:14:56;;;;;;;2.90;2.50;;;;;;;16.99;77.50;100607.00;4998399;28;20603;-72
2023/08/27 00:17:24;;;;;;;3.57;2.70;;;;;;;17.01;77.03;100594.06;4997749;28;20206;-72
2023/08/27 00:19:50;;;;;;;3.83;2.90;;;;;;;17.06;77.90;100575.06;4999268;28;20223;-73
2023/08/27 00:22:17;;;;;;;3.23;2.70;;;;;;;17.11;78.35;100567.50;4996901;28;20211;-73
2023/08/27 00:24:43;;;;;;;3.97;2.97;;;;;;;17.16;78.45;100564.47;4997581;28;20211;-72
2023/08/27 00:27:09;;;;;;;4.40;2.90;;;;;;;17.21;77.92;100548.13;4998996;28;20219;-72
2023/08/27 00:29:36;;;;;;;4.17;2.97;;;;;;;17.28;78.62;100558.84;4998684;28;20227;-73
2023/08/27 00:32:02;;;;;;;4.17;3.03;;;;;;;17.30;78.39;100567.25;4998631;28;20615;-72
2023/08/27 00:34:35;;;;;;;4.67;3.03;;;;;;;17.32;78.16;100567.66;4982284;28;20208;-72
2023/08/27 00:37:02;;;;;;;5.90;2.87;;;;;;;17.37;78.18;100564.63;4979252;28;20230;-73
2023/08/27 00:39:29;;;;;;;3.30;2.73;;;;;;;17.40;77.77;100560.50;4997228;28;21293;-72
2023/08/27 00:41:56;;;;;;;4.30;2.80;;;;;;;17.43;77.52;100562.44;4967118;28;20296;-72
2023/08/27 00:44:23;;;;;;;3.27;2.80;;;;;;;17.46;77.97;100562.44;4980999;28;20612;-72
2023/08/27 00:46:49;;;;;;;3.70;3.27;;;;;;;17.50;77.99;100560.56;4981026;28;20223;-72
2023/08/27 00:49:16;;;;;;;5.03;3.13;;;;;;;17.52;78.27;100557.50;4981413;28;20802;-73
2023/08/27 00:51:45;;;;;;;3.80;2.83;;;;;;;17.54;78.05;100555.25;4977522;28;20219;-72
2023/08/27 00:54:13;;;;;;;4.43;2.90;;;;;;;17.54;78.07;100564.00;4998575;28;20222;-73
2023/08/27 00:56:40;;;;;;;3.77;2.90;;;;;;;17.55;77.79;100554.84;4996905;28;20234;-73
2023/08/27 00:59:06;;;;;;;4.73;3.23;;;;;;;17.58;78.14;100564.81;4978671;28;20740;-72
2023/08/27 01:01:33;;;;;;;4.23;2.97;;;;;;;17.58;77.83;100559.47;4978824;28;20210;-72
2023/08/27 01:04:00;;;;;;;5.07;2.97;;;;;;;17.59;78.19;100566.34;4998664;28;20203;-73
2023/08/27 01:06:26;;;;;;;4.10;3.33;;;;;;;17.61;78.48;100574.75;4972263;28;20207;-73
2023/08/27 01:08:59;;;;;;;3.70;3.30;;;;;;;17.63;78.09;100574.38;4973782;28;20235;-72
2023/08/27 01:11:35;;;;;;;4.37;2.93;;;;;;;17.67;78.02;100565.25;4975256;28;20238;-73
2023/08/27 01:14:05;;;;;;;3.77;3.17;;;;;;;17.72;78.63;100561.47;4968312;28;20490;-72
2023/08/27 01:16:34;;;;;;;4.30;3.03;;;;;;;17.76;78.52;100560.34;4977782;28;20218;-72
2023/08/27 01:19:02;;;;;;;5.13;3.40;;;;;;;17.77;78.22;100561.09;4993228;28;20230;-72
2023/08/27 01:21:29;;;;;;;4.43;3.20;;;;;;;17.80;78.64;100563.03;4978007;28;20328;-72
2023/08/27 01:23:56;;;;;;;4.60;3.33;;;;;;;17.81;78.21;100556.56;4977022;28;20218;-73
2023/08/27 01:26:28;;;;;;;4.83;3.33;;;;;;;17.83;77.79;100556.94;4977934;28;22376;-72
2023/08/27 01:29:02;;;;;;;6.63;3.43;;;;;;;17.84;77.24;100559.25;4977996;28;21546;-72
2023/08/27 01:31:33;;;;;;;5.63;2.97;;;;;;;17.87;77.64;100560.41;5025532;22;20253;-71
2023/08/27 01:34:05;;;;;;;4.10;3.27;;;;;;;17.89;77.22;100566.91;5006005;28;20207;-72
2023/08/27 01:36:35;;;;;;;6.47;3.63;;;;;;;17.93;77.12;100557.00;4991027;28;20906;-71
2023/08/27 01:39:03;;;;;;;3.37;3.07;;;;;;;17.97;77.69;100557.00;4990231;28;20211;-71
2023/08/27 01:41:30;;;;;;;3.57;2.90;;;;;;;18.00;76.89;100556.28;4989239;28;21287;-71
2023/08/27 01:43:56;;;;;;;3.57;2.97;;;;;;;18.01;76.54;100550.53;4990154;28;20218;-71
2023/08/27 01:46:23;;;;;;;4.57;2.90;;;;;;;18.04;77.05;100541.78;5047386;23;20300;-75
2023/08/27 01:48:50;;;;;;;3.40;2.83;;;;;;;18.07;77.08;100532.25;5035991;28;20207;-75
2023/08/27 01:51:17;;;;;;;3.50;2.93;;;;;;;18.11;77.04;100522.34;5038208;28;20215;-75
2023/08/27 01:53:46;;;;;;;3.23;2.90;;;;;;;18.14;76.64;100527.69;5039126;28;20202;-75
2023/08/27 01:56:13;;;;;;;8.30;3.17;;;;;;;18.15;76.61;100544.47;5044875;28;20230;-75
2023/08/27 01:58:39;;;;;;;3.50;3.17;;;;;;;18.15;76.27;100547.16;5039519;28;20202;-75
2023/08/27 02:01:06;;;;;;;3.30;3.00;;;;;;;18.16;76.16;100543.34;5043303;28;20320;-74
2023/08/27 02:03:32;;;;;;;4.07;3.07;;;;;;;18.18;76.79;100541.06;5055797;28;20202;-75
2023/08/27 02:05:59;;;;;;;3.63;2.70;;;;;;;18.19;76.82;100548.72;5043775;28;20191;-75
2023/08/27 02:08:25;;;;;;;6.07;3.03;;;;;;;18.19;76.90;100554.06;5039000;28;20203;-75
2023/08/27 02:10:53;;;;;;;5.20;3.27;;;;;;;18.18;76.61;100551.75;5055488;28;20210;-74
2023/08/27 02:13:19;;;;;;;5.50;3.40;;;;;;;18.20;77.11;100550.25;5057293;28;20233;-75
2023/08/27 02:15:45;;;;;;;5.63;3.03;;;;;;;18.20;76.76;100538.75;5043315;28;20226;-75
2023/08/27 02:18:12;;;;;;;4.63;3.23;;;;;;;18.21;76.52;100533.06;5044690;28;20207;-74
2023/08/27 02:20:38;;;;;;;6.27;3.53;;;;;;;18.21;76.84;100534.97;5044664;28;20250;-74
2023/08/27 02:23:05;;;;;;;5.80;3.33;;;;;;;18.20;76.97;100536.09;5039881;28;20213;-75
2023/08/27 02:25:31;;;;;;;7.13;3.57;;;;;;;18.17;77.23;100532.28;5038437;28;20194;-75
2023/08/27 02:27:59;;;;;;;4.73;3.60;;;;;;;18.14;77.27;100541.06;5057480;28;20925;-75
2023/08/27 02:30:25;;;;;;;5.10;3.13;;;;;;;18.13;77.38;100550.22;5043864;28;20226;-74
2023/08/27 02:32:53;;;;;;;6.53;3.17;;;;;;;18.12;77.24;100539.91;5040095;28;20277;-75
2023/08/27 02:35:20;;;;;;;7.77;3.83;;;;;;;18.09;77.08;100548.66;5042961;28;20210;-75
2023/08/27 02:37:46;;;;;;;5.07;3.43;;;;;;;18.05;77.38;100554.00;5043954;28;20286;-75
2023/08/27 02:40:13;;;;;;;4.57;3.00;;;;;;;18.02;77.59;100557.44;5046495;28;20314;-75
2023/08/27 02:42:40;;;;;;;5.40;3.47;;;;;;;18.02;77.54;100548.63;5038435;28;20203;-75
2023/08/27 02:45:09;;;;;;;5.53;3.80;;;;;;;18.01;77.83;100549.78;5040559;28;20211;-75
2023/08/27 02:47:35;;;;;;;3.77;3.20;;;;;;;17.99;77.93;100546.72;5043423;28;20209;-75
2023/08/27 02:50:03;;;;;;;4.70;3.10;;;;;;;18.00;78.23;100535.66;5043011;28;20229;-74
2023/08/27 02:52:31;;;;;;;6.97;3.60;;;;;;;17.98;78.48;100532.59;5056340;28;20226;-75
2023/08/27 02:54:57;;;;;;;3.80;3.17;;;;;;;17.98;78.41;100526.47;5036386;28;20692;-75
2023/08/27 02:57:23;;;;;;;4.07;3.00;;;;;;;17.96;78.42;100518.81;5039011;28;20666;-75
2023/08/27 02:59:50;;;;;;;5.27;3.47;;;;;;;17.96;78.26;100508.13;5045738;28;20706;-75
2023/08/27 03:02:18;;;;;;;2.90;2.70;;;;;;;17.97;77.96;100511.59;5042044;28;20206;-75
2023/08/27 03:04:44;;;;;;;4.30;3.17;;;;;;;17.97;78.35;100508.91;5037724;28;20266;-75
2023/08/27 03:07:10;;;;;;;3.13;2.80;;;;;;;17.97;78.43;100493.66;5059270;28;20206;-73
2023/08/27 03:09:37;;;;;;;3.00;2.77;;;;;;;17.98;78.52;100502.44;5042914;28;20776;-75
2023/08/27 03:12:04;;;;;;;3.97;2.93;;;;;;;17.98;78.10;100507.78;5060421;28;20211;-74
2023/08/27 03:14:31;;;;;;;3.77;2.63;;;;;;;17.97;77.68;100498.22;5058003;28;20211;-75
2023/08/27 03:16:57;;;;;;;2.90;2.67;;;;;;;17.96;77.97;100502.78;5038531;28;20206;-75
2023/08/27 03:19:25;;;;;;;4.30;3.40;;;;;;;17.96;77.84;100500.13;5036817;28;20784;-75
2023/08/27 03:21:51;;;;;;;5.20;3.00;;;;;;;17.95;77.98;100497.84;5057350;28;20679;-75
2023/08/27 03:24:18;;;;;;;7.17;3.47;;;;;;;17.94;77.63;100497.06;5059889;28;20559;-75
2023/08/27 03:26:44;;;;;;;3.20;2.90;;;;;;;17.95;78.38;100487.16;5042377;28;20223;-75
2023/08/27 03:29:10;;;;;;;5.40;2.87;;;;;;;17.94;78.35;100486.38;5043062;28;20211;-75
2023/08/27 03:31:37;;;;;;;3.67;3.00;;;;;;;17.93;77.81;100486.75;5038954;28;20229;-74
2023/08/27 03:34:03;;;;;;;4.33;3.20;;;;;;;17.93;78.03;100492.09;5055724;28;20191;-75
2023/08/27 03:36:31;;;;;;;4.17;3.07;;;;;;;17.89;78.35;100502.78;5043146;28;20210;-75
2023/08/27 03:38:57;;;;;;;3.20;2.90;;;;;;;17.83;78.23;100506.19;5060952;28;20210;-75
2023/08/27 03:41:24;;;;;;;3.33;2.93;;;;;;;17.79;78.83;100500.81;5037497;28;20222;-75
2023/08/27 03:43:50;;;;;;;4.97;3.20;;;;;;;17.74;78.63;100511.13;5043832;28;20710;-74
2023/08/27 03:46:17;;;;;;;3.33;2.93;;;;;;;17.69;78.81;100496.19;5038308;28;20217;-75
2023/08/27 03:48:43;;;;;;;4.07;3.03;;;;;;;17.65;79.03;100500.00;5041078;28;20218;-74
2023/08/27 03:51:09;;;;;;;4.83;3.03;;;;;;;17.58;79.04;100490.03;5058111;28;20219;-75
2023/08/27 03:53:37;;;;;;;3.43;3.13;;;;;;;17.55;79.30;100488.09;5046717;28;20205;-75
2023/08/27 03:56:04;;;;;;;3.93;3.37;;;;;;;17.51;79.90;100490.03;5042074;28;20290;-74
2023/08/27 03:58:32;;;;;;;3.90;3.13;;;;;;;17.46;80.06;100492.25;5062896;28;20203;-75
2023/08/27 04:00:59;;;;;;;4.57;2.97;;;;;;;17.41;79.54;100495.28;5061064;28;20214;-73
2023/08/27 04:03:26;;;;;;;3.60;3.23;;;;;;;17.36;79.63;100495.59;5049437;28;20209;-75
2023/08/27 04:05:52;;;;;;;4.97;3.60;;;;;;;17.32;79.92;100490.25;5048030;28;20578;-75
2023/08/27 04:08:19;;;;;;;4.07;3.43;;;;;;;17.31;80.17;100491.38;5048587;28;20229;-75
2023/08/27 04:10:51;;;;;;;4.00;3.13;;;;;;;17.28;80.25;100484.13;5046671;28;20266;-75
2023/08/27 04:13:18;;;;;;;6.10;3.83;;;;;;;17.26;79.99;100488.28;5045984;28;20220;-74
2023/08/27 04:15:46;;;;;;;4.50;3.10;;;;;;;17.24;80.50;100485.25;5058114;28;20207;-74
2023/08/27 04:18:13;;;;;;;6.13;3.30;;;;;;;17.22;80.78;100485.59;5060171;28;20201;-75
2023/08/27 04:20:39;;;;;;;4.53;3.27;;;;;;;17.21;80.77;100472.63;5051449;28;20233;-75
2023/08/27 04:23:05;;;;;;;4.00;3.20;;;;;;;17.19;80.61;100467.66;5049802;28;20546;-75
2023/08/27 04:25:32;;;;;;;4.57;3.30;;;;;;;17.15;80.02;100463.44;5060481;28;20226;-76
2023/08/27 04:28:00;;;;;;;3.70;3.30;;;;;;;17.12;79.74;100462.28;5042207;28;20278;-75
2023/08/27 04:30:26;;;;;;;3.50;2.97;;;;;;;17.09;79.76;100471.06;5047633;28;20357;-75
2023/08/27 04:32:52;;;;;;;4.50;3.10;;;;;;;17.08;80.30;100480.16;5050292;28;20211;-75
2023/08/27 04:35:19;;;;;;;3.87;3.43;;;;;;;17.06;80.59;100484.34;5045295;28;20214;-75
2023/08/27 04:37:45;;;;;;;8.10;3.70;;;;;;;17.05;81.37;100491.59;5042530;28;20697;-75
2023/08/27 04:40:12;;;;;;;7.83;3.57;;;;;;;17.03;81.38;100493.84;5064717;28;20230;-75
2023/08/27 04:42:39;;;;;;;4.03;3.53;;;;;;;17.03;81.99;100488.50;5050982;28;20629;-75
2023/08/27 04:45:08;;;;;;;4.80;3.83;;;;;;;17.04;81.78;100490.06;5041686;28;20302;-74
2023/08/27 04:47:35;;;;;;;5.03;3.70;;;;;;;17.06;82.16;100498.47;5040835;28;20624;-75
2023/08/27 04:50:01;;;;;;;5.30;4.00;;;;;;;17.08;82.22;100500.75;5047305;28;20253;-75
2023/08/27 04:52:28;;;;;;;5.27;3.97;;;;;;;17.10;82.08;100495.81;5058516;28;20205;-75
2023/08/27 04:54:55;;;;;;;4.60;3.30;;;;;;;17.11;81.66;100490.09;5056758;28;20232;-73
2023/08/27 04:57:21;;;;;;;4.60;3.60;;;;;;;17.15;81.60;100496.25;5064532;28;20206;-74
2023/08/27 04:59:48;;;;;;;5.63;3.97;;;;;;;17.20;81.89;100511.91;5041613;28;20237;-75
2023/08/27 05:02:17;;;;;;;9.13;3.67;;;;;;;17.23;81.82;100495.13;5047693;28;20242;-75
2023/08/27 05:04:44;;;;;;;4.63;3.40;;;;;;;17.27;81.84;100493.25;5044313;28;20302;-75
2023/08/27 05:07:10;;;;;;;4.40;3.10;;;;;;;17.32;81.97;100497.47;5044819;28;20203;-75
2023/08/27 05:09:36;;;;;;;4.20;3.67;;;;;;;17.36;81.92;100499.03;5056029;28;20236;-75
2023/08/27 05:12:04;;;;;;;5.10;3.20;;;;;;;17.39;81.30;100490.31;5063352;28;20203;-75
2023/08/27 05:14:30;;;;;;;6.70;3.20;;;;;;;17.42;81.07;100484.25;5042717;28;20603;-75
2023/08/27 05:16:56;;;;;;;4.03;3.33;;;;;;;17.46;80.51;100487.69;5045252;28;20212;-75
2023/08/27 05:19:24;;;;;;;4.00;3.60;;;;;;;17.54;80.62;100499.19;5039829;28;20934;-75
2023/08/27 05:21:51;;;;;;;4.93;4.20;;;;;;;17.60;81.08;100505.69;5045264;28;20264;-74
2023/08/27 05:24:18;;;;;;;4.30;3.20;;;;;;;17.67;81.71;100519.06;5044372;28;20395;-75
2023/08/27 05:26:44;;;;;;;3.77;3.43;;;;;;;17.73;82.24;100515.69;5038393;28;20233;-74
2023/08/27 05:29:11;;;;;;;3.83;3.20;;;;;;;17.83;81.98;100504.28;5043004;28;20293;-75
2023/08/27 05:31:37;;;;;;;6.70;3.40;;;;;;;17.91;81.26;100491.72;5043819;28;20553;-75
2023/08/27 05:34:04;;;;;;;4.50;3.47;;;;;;;17.97;80.67;100482.19;5043578;28;20206;-75
2023/08/27 05:36:31;;;;;;;3.77;3.10;;;;;;;18.04;80.28;100480.31;5039974;28;20288;-75
2023/08/27 05:38:58;;;;;;;3.77;2.73;;;;;;;18.09;79.58;100479.19;5057795;28;20286;-75
2023/08/27 05:41:24;;;;;;;6.20;3.10;;;;;;;18.11;77.83;100474.25;5044087;28;20309;-74
2023/08/27 05:43:51;;;;;;;4.83;2.70;;;;;;;18.15;77.68;100481.13;5038384;28;20237;-75
2023/08/27 05:46:17;;;;;;;3.57;3.10;;;;;;;18.19;76.98;100478.44;5042560;28;20302;-74
2023/08/27 05:48:43;;;;;;;4.17;2.70;;;;;;;18.21;75.81;100479.59;5044289;28;20628;-75
2023/08/27 05:51:10;;;;;;;6.83;3.10;;;;;;;18.22;75.30;100461.66;5040871;28;20227;-75
2023/08/27 05:53:41;;;;;;;3.70;2.40;;;;;;;18.26;75.83;100462.44;5039346;28;20738;-75
2023/08/27 05:56:08;;;;;;;4.10;2.70;;;;;;;18.28;75.97;100460.91;5062402;28;20284;-75
2023/08/27 05:58:34;;;;;;;4.20;2.67;;;;;;;18.30;75.63;100469.31;5041822;28;20245;-75
2023/08/27 06:01:02;;;;;;;4.23;2.73;;;;;;;18.31;75.34;100462.81;5042150;28;20218;-75
2023/08/27 06:03:29;;;;;;;4.57;2.87;;;;;;;18.33;74.78;100441.84;5058728;28;20218;-74
2023/08/27 06:05:55;;;;;;;4.80;2.20;;;;;;;18.37;74.29;100428.50;5033480;28;20277;-75
2023/08/27 06:08:22;;;;;;;6.43;3.20;;;;;;;18.42;74.40;100439.56;5049614;28;20291;-75
2023/08/27 06:10:49;;;;;;;3.23;2.63;;;;;;;18.48;72.98;100435.34;5050666;28;20227;-74
2023/08/27 06:13:16;;;;;;;3.00;2.70;;;;;;;18.53;73.26;100445.69;5037954;28;20203;-74
2023/08/27 06:15:42;;;;;;;8.23;2.77;;;;;;;18.60;73.52;100459.06;5037512;28;20214;-74
2023/08/27 06:18:09;;;;;;;6.27;2.50;;;;;;;18.67;73.48;100456.38;5032387;28;20210;-74
2023/08/27 06:20:35;;;;;;;3.83;2.20;;;;;;;18.74;72.68;100448.34;5038444;28;20480;-74
2023/08/27 06:23:04;;;;;;;3.13;2.50;;;;;;;18.83;72.87;100456.75;5049939;28;20597;-74
2023/08/27 06:25:33;;;;;;;3.53;2.47;;;;;;;18.90;72.37;100464.03;5033410;28;20213;-74
2023/08/27 06:28:04;;;;;;;3.37;2.43;;;;;;;18.97;71.25;100469.38;5050288;28;20210;-74
2023/08/27 06:30:31;;;;;;;3.67;2.63;;;;;;;19.03;71.91;100463.25;5053570;28;21514;-75
2023/08/27 06:33:00;;;;;;;4.30;2.57;;;;;;;19.10;70.77;100473.19;5051061;28;20199;-74
2023/08/27 06:35:26;;;;;;;3.40;2.43;;;;;;;19.13;68.70;100477.75;5035141;28;20212;-75
2023/08/27 06:37:53;;;;;;;3.83;2.27;;;;;;;19.19;70.22;100489.63;5037829;28;20213;-74
2023/08/27 06:40:20;;;;;;;3.03;2.07;;;;;;;19.21;70.06;100477.41;5030367;28;20258;-75
2023/08/27 06:42:46;;;;;;;3.43;2.13;;;;;;;19.25;70.73;100483.50;5033849;28;20218;-75
2023/08/27 06:45:19;;;;;;;3.60;2.50;;;;;;;19.27;69.44;100483.13;5037575;28;20688;-75
2023/08/27 06:47:45;;;;;;;3.03;2.13;;;;;;;19.28;68.86;100476.63;5047207;28;20285;-75
2023/08/27 06:50:11;;;;;;;4.33;2.33;;;;;;;19.30;68.34;100485.78;5033359;28;20627;-75
2023/08/27 06:52:38;;;;;;;2.53;2.23;;;;;;;19.32;69.36;100474.69;5033555;28;20210;-75
2023/08/27 06:55:05;;;;;;;4.13;2.33;;;;;;;19.33;68.88;100473.56;5048203;28;21163;-75
2023/08/27 06:57:33;;;;;;;4.80;2.40;;;;;;;19.32;67.64;100475.47;5030044;28;20218;-75
2023/08/27 07:00:01;;;;;;;3.77;2.00;;;;;;;19.34;68.31;100483.88;5027892;28;20225;-75
2023/08/27 07:02:29;;;;;;;3.00;2.30;;;;;;;19.35;67.60;100482.72;5030706;28;20646;-75
2023/08/27 07:04:56;;;;;;;4.40;2.60;;;;;;;19.38;68.56;100494.56;5046708;28;20237;-74
2023/08/27 07:07:23;;;;;;;2.83;2.00;;;;;;;19.43;69.64;100502.22;5046884;28;20758;-75
2023/08/27 07:09:49;;;;;;;2.63;2.37;;;;;;;19.46;68.12;100496.09;5050067;28;20261;-75
2023/08/27 07:12:16;;;;;;;2.63;2.40;;;;;;;19.49;67.78;100498.00;5046392;28;20195;-75
2023/08/27 07:14:42;;;;;;;2.67;2.37;;;;;;;19.52;68.03;100498.00;5033748;28;20317;-75
2023/08/27 07:17:09;;;;;;;2.50;2.30;;;;;;;19.57;68.46;100502.19;5048446;28;20562;-75
2023/08/27 07:19:36;;;;;;;4.03;2.83;;;;;;;19.62;68.27;100504.47;5034681;28;20234;-76
2023/08/27 07:22:03;;;;;;;3.80;2.33;;;;;;;19.67;68.56;100498.72;5035190;28;20581;-75
2023/08/27 07:24:30;;;;;;;5.20;3.97;;;;;;;19.72;68.08;100493.72;5053000;28;20290;-75
2023/08/27 07:26:57;;;;;;;2.67;2.47;;;;;;;19.77;67.83;100497.91;5034718;28;20321;-75
2023/08/27 07:29:24;;;;;;;3.23;2.60;;;;;;;19.81;67.56;100490.63;5028274;28;20288;-75
2023/08/27 07:31:50;;;;;;;2.90;2.60;;;;;;;19.83;66.69;100494.47;5036474;28;20207;-75
2023/08/27 07:34:16;;;;;;;7.93;2.90;;;;;;;19.84;66.16;100495.97;5048774;28;21269;-75
2023/08/27 07:36:44;;;;;;;3.07;2.60;;;;;;;19.89;65.91;100494.81;5035105;28;20230;-72
2023/08/27 07:39:10;;;;;;;3.00;2.40;;;;;;;19.91;65.75;100500.53;5030489;28;20646;-73
2023/08/27 07:41:37;;;;;;;3.17;2.60;;;;;;;19.95;66.04;100498.59;5035963;28;21370;-73
2023/08/27 07:44:04;;;;;;;6.87;2.37;;;;;;;19.98;67.20;100505.88;5038932;28;20219;-74
2023/08/27 07:46:30;;;;;;;4.93;2.50;;;;;;;19.99;65.83;100497.44;5036780;28;20662;-73
2023/08/27 07:48:57;;;;;;;4.13;2.60;;;;;;;20.02;64.69;100498.59;5037135;28;20202;-73
2023/08/27 07:51:24;;;;;;;5.17;2.90;;;;;;;20.03;64.84;100495.50;5049617;28;20356;-73
2023/08/27 07:53:52;;;;;;;4.57;2.93;;;;;;;20.07;64.97;100490.16;5033668;28;20565;-72
2023/08/27 07:56:19;;;;;;;3.10;2.53;;;;;;;20.08;64.24;100494.38;5031177;28;20437;-72
2023/08/27 07:58:46;;;;;;;3.00;2.10;;;;;;;20.11;65.74;100496.25;5046752;28;20323;-75
2023/08/27 08:01:12;;;;;;;4.90;2.73;;;;;;;20.12;65.80;100490.50;5035593;28;20230;-75
2023/08/27 08:03:39;;;;;;;3.53;2.80;;;;;;;20.13;65.54;100489.34;5051730;28;20246;-75
2023/08/27 08:06:05;;;;;;;4.07;2.50;;;;;;;20.13;65.24;100496.66;5048636;28;20203;-75
2023/08/27 08:08:32;;;;;;;3.37;2.47;;;;;;;20.12;63.93;100490.50;5047549;28;20767;-76
2023/08/27 08:11:00;;;;;;;4.67;2.30;;;;;;;20.11;64.93;100490.88;5047873;28;20876;-75
2023/08/27 08:13:26;;;;;;;4.67;2.70;;;;;;;20.09;64.92;100491.31;5048860;28;20268;-76
2023/08/27 08:15:53;;;;;;;3.33;2.80;;;;;;;20.07;64.32;100496.28;5046931;28;20203;-75
2023/08/27 08:18:19;;;;;;;4.13;2.67;;;;;;;20.06;65.09;100496.63;5048359;28;20285;-75
2023/08/27 08:20:47;;;;;;;2.53;2.17;;;;;;;20.05;65.26;100495.88;5028673;28;20809;-75
2023/08/27 08:23:13;;;;;;;3.10;2.67;;;;;;;20.07;64.97;100492.84;5042311;28;20227;-76
2023/08/27 08:25:43;;;;;;;5.90;3.20;;;;;;;20.08;66.42;100483.66;5046715;28;20750;-75
2023/08/27 08:28:11;;;;;;;4.50;2.67;;;;;;;20.09;64.69;100483.25;5046702;28;20205;-75
2023/08/27 08:30:37;;;;;;;3.20;2.90;;;;;;;20.13;66.52;100473.25;5046656;28;20233;-75
2023/08/27 08:33:04;;;;;;;5.17;2.80;;;;;;;20.17;63.95;100459.88;5044382;28;20190;-73
2023/08/27 08:35:30;;;;;;;4.40;3.20;;;;;;;20.25;65.82;100456.75;5048224;28;20206;-72
2023/08/27 08:37:57;;;;;;;4.43;3.13;;;;;;;20.32;64.40;100454.00;5047820;28;20198;-73
2023/08/27 08:40:23;;;;;;;4.67;3.00;;;;;;;20.39;65.59;100434.41;5046918;28;20218;-73
2023/08/27 08:42:56;;;;;;;3.00;2.70;;;;;;;20.44;60.97;100426.69;5047951;28;20211;-73
2023/08/27 08:45:33;;;;;;;4.87;2.73;;;;;;;20.52;63.42;100433.56;5033840;28;20766;-73
2023/08/27 08:48:02;;;;;;;4.40;3.10;;;;;;;20.57;60.81;100432.34;5045480;28;20199;-73
2023/08/27 08:50:32;;;;;;;3.73;2.60;;;;;;;20.61;63.00;100417.00;5045744;28;20288;-73
2023/08/27 08:53:03;;;;;;;3.20;2.90;;;;;;;20.61;61.95;100406.25;5045532;28;20207;-73
2023/08/27 08:55:32;;;;;;;3.60;2.80;;;;;;;20.60;63.92;100404.75;5047712;28;20326;-74
2023/08/27 08:58:04;;;;;;;4.00;2.80;;;;;;;20.61;63.76;100404.34;5044727;28;20202;-73
2023/08/27 09:00:32;;;;;;;3.83;3.00;;;;;;;20.62;64.61;100416.59;5045852;28;20231;-72
2023/08/27 09:03:02;;;;;;;3.03;2.67;;;;;;;20.64;64.00;100413.53;5044548;28;20688;-73
2023/08/27 09:05:30;;;;;;;5.07;3.27;;;;;;;20.67;61.39;100416.19;5031551;28;20210;-73
2023/08/27 09:07:57;;;;;;;3.20;2.90;;;;;;;20.72;63.68;100409.63;5042474;28;20203;-73
2023/08/27 09:10:25;;;;;;;4.70;2.77;;;;;;;20.76;62.47;100419.19;5032301;28;20238;-73
2023/08/27 09:12:55;;;;;;;4.40;3.00;;;;;;;20.83;62.70;100412.97;5044119;28;20211;-73
2023/08/27 09:15:22;;;;;;;6.73;3.20;;;;;;;20.90;61.78;100421.75;5043905;28;20289;-73
2023/08/27 09:17:50;;;;;;;4.33;2.60;;;;;;;20.99;63.73;100423.94;5043707;28;20705;-73
2023/08/27 09:20:16;;;;;;;3.07;2.73;;;;;;;21.06;63.61;100430.00;5042197;28;20780;-74
2023/08/27 09:22:43;;;;;;;3.43;2.80;;;;;;;21.14;61.41;100428.03;5043227;28;20581;-74
2023/08/27 09:25:10;;;;;;;3.07;2.77;;;;;;;21.19;60.32;100428.38;5041957;28;20455;-74
2023/08/27 09:27:37;;;;;;;3.50;2.33;;;;;;;21.25;59.17;100420.59;5043820;28;20574;-73
2023/08/27 09:30:04;;;;;;;2.33;2.08;;;;;;;21.30;60.59;100420.94;5040672;28;20218;-73
2023/08/27 09:32:30;;;;;;;2.50;1.80;;;;;;;21.33;61.12;100420.16;5045715;28;20214;-73
2023/08/27 09:35:00;;;;;;;2.83;1.98;;;;;;;21.33;61.17;100412.09;5029889;28;20573;-73
2023/08/27 09:37:28;;;;;;;4.80;2.80;;;;;;;21.31;56.37;100411.72;5042636;28;20203;-73
2023/08/27 09:39:54;;;;;;;3.67;2.17;;;;;;;21.29;60.38;100414.06;5042275;28;20230;-73
2023/08/27 09:42:21;;;;;;;3.43;2.30;;;;;;;21.27;58.09;100404.88;5041977;28;21369;-74
2023/08/27 09:44:49;;;;;;;3.27;1.97;;;;;;;21.22;57.91;100400.69;5042297;28;20233;-73
2023/08/27 09:47:15;;;;;;;2.47;2.20;;;;;;;21.18;61.10;100394.63;5042179;28;20203;-73
2023/08/27 09:49:43;;;;;;;2.35;1.83;;;;;;;21.11;58.69;100393.94;5043088;28;20566;-73
2023/08/27 09:52:11;;;;;;;3.10;2.00;;;;;;;21.06;59.53;100387.06;5042265;28;20202;-74
2023/08/27 09:54:37;;;;;;;2.90;2.10;;;;;;;21.04;60.16;100377.88;5042898;28;20687;-73
2023/08/27 09:57:04;;;;;;;2.87;2.30;;;;;;;20.99;56.93;100379.09;5042194;28;20213;-73
2023/08/27 09:59:30;;;;;;;2.87;2.37;;;;;;;20.97;56.29;100378.75;5043051;28;20223;-73
2023/08/27 10:01:57;;;;;;;3.87;2.07;;;;;;;20.99;57.41;100376.41;5042052;28;20206;-73
2023/08/27 10:04:23;;;;;;;3.23;2.10;;;;;;;21.02;57.93;100377.53;5029003;28;20289;-73
2023/08/27 10:06:50;;;;;;;2.33;2.13;;;;;;;21.03;58.27;100371.00;5042414;28;20231;-73
2023/08/27 10:09:18;;;;;;;3.13;2.20;;;;;;;21.04;58.00;100383.25;5043193;28;20673;-72
2023/08/27 10:11:46;;;;;;;4.57;2.67;;;;;;;21.02;58.43;100380.97;5044841;28;20211;-73
2023/08/27 10:14:14;;;;;;;2.87;2.17;;;;;;;21.04;59.89;100375.19;5040709;28;20581;-74
2023/08/27 10:16:41;;;;;;;3.07;2.00;;;;;;;21.01;59.22;100381.38;5041916;28;20210;-74
2023/08/27 10:19:08;;;;;;;6.80;2.40;;;;;;;20.98;60.87;100377.56;5023581;28;20303;-74
2023/08/27 10:21:35;;;;;;;4.03;2.63;;;;;;;20.94;60.95;100384.88;5042172;28;20203;-73
2023/08/27 10:24:02;;;;;;;3.00;2.23;;;;;;;20.90;62.25;100384.16;5042548;28;20215;-73
2023/08/27 10:26:32;;;;;;;3.93;2.50;;;;;;;20.86;61.65;100385.34;5042749;28;20206;-73
2023/08/27 10:28:59;;;;;;;3.20;2.77;;;;;;;20.86;63.23;100385.34;5042331;28;21119;-73
2023/08/27 10:31:26;;;;;;;4.87;3.00;;;;;;;20.85;63.47;100392.63;5043333;28;20230;-73
2023/08/27 10:33:52;;;;;;;3.27;2.93;;;;;;;20.84;62.77;100393.78;5044177;28;20570;-73
2023/08/27 10:36:28;;;;;;;4.47;2.70;;;;;;;20.84;63.40;100391.09;5041215;28;20374;-72
2023/08/27 10:38:56;;;;;;;4.00;2.80;;;;;;;20.86;63.43;100394.13;5026930;28;20822;-73
2023/08/27 10:41:25;;;;;;;4.93;3.10;;;;;;;20.90;65.18;100399.53;5045203;28;20431;-73
2023/08/27 10:43:52;;;;;;;4.67;2.90;;;;;;;20.96;64.98;100401.34;5027409;28;20716;-73
2023/08/27 10:46:20;;;;;;;4.27;3.00;;;;;;;21.00;64.71;100401.34;5042948;28;20207;-73
2023/08/27 10:48:51;;;;;;;4.33;3.50;;;;;;;21.05;64.94;100403.59;5042871;28;20210;-73
2023/08/27 10:51:18;;;;;;;3.70;2.87;;;;;;;21.08;64.57;100408.91;5041969;28;20244;-73
2023/08/27 10:53:56;;;;;;;4.30;2.87;;;;;;;21.10;64.26;100403.13;5040416;28;20217;-73
2023/08/27 10:56:35;;;;;;;2.93;2.57;;;;;;;21.09;63.45;100388.94;5039013;28;20303;-73
2023/08/27 10:59:04;;;;;;;3.87;2.50;;;;;;;21.10;64.33;100385.09;5042047;28;20205;-73
2023/08/27 11:01:36;;;;;;;3.43;2.63;;;;;;;21.12;64.14;100385.44;5021054;28;20207;-74
2023/08/27 11:04:04;;;;;;;4.90;3.10;;;;;;;21.17;64.69;100373.53;5039867;28;20692;-74
2023/08/27 11:06:37;;;;;;;4.77;2.57;;;;;;;21.19;64.68;100371.19;5041647;28;20207;-74
2023/08/27 11:09:12;;;;;;;4.17;3.10;;;;;;;21.23;64.46;100374.59;5041130;28;20207;-73
2023/08/27 11:11:40;;;;;;;6.57;3.20;;;;;;;21.25;64.42;100375.72;5027789;28;20217;-74
2023/08/27 11:14:09;;;;;;;4.03;3.10;;;;;;;21.29;64.93;100389.09;5040513;28;20226;-73
2023/08/27 11:16:44;;;;;;;3.28;2.90;;;;;;;21.28;63.60;100398.34;5041280;28;20214;-74
2023/08/27 11:19:12;;;;;;;5.43;2.83;;;;;;;21.27;64.11;100397.56;5040833;28;20206;-74
2023/08/27 11:21:45;;;;;;;6.35;3.45;;;;;;;21.30;64.52;100391.41;5039885;28;20224;-74
2023/08/27 11:24:16;;;;;;;4.38;3.28;;;;;;;21.31;64.43;100378.75;5041628;28;20221;-73